Time;durP1;ratioP1;P1;durP2;ratioP2;P2;SDS_P1;SDS_P2;PMS_P1;PMS_P2;Temp;Humidity;BMP_temperature;BMP_pressure;BME280_temperature;BME280_humidity;BME280_pressure;Samples;Min_cycle;Max_cycle;Signal;HPM_P1;HPM_P2
2024/02/18 00:00:00;;;;;;;19.83;3.33;;;;;;;;;;4993971;28;20461;-78
2024/02/18 00:02:27;;;;;;;18.48;2.50;;;;;;;;;;4991978;28;20042;-78
2024/02/18 00:04:54;;;;;;;23.40;3.05;;;;;;;;;;4993445;28;20050;-78
2024/02/18 00:07:22;;;;;;;26.83;3.67;;;;;;;;;;4992660;28;20481;-78
2024/02/18 00:09:49;;;;;;;21.92;2.30;;;;;;;;;;4992913;28;20038;-78
2024/02/18 00:12:16;;;;;;;18.88;2.95;;;;;;;;;;4992624;28;20078;-78
2024/02/18 00:14:43;;;;;;;31.40;3.88;;;;;;;;;;4992995;28;20050;-78
2024/02/18 00:17:09;;;;;;;22.27;3.40;;;;;;;;;;4991974;28;20042;-79
2024/02/18 00:19:36;;;;;;;35.67;3.85;;;;;;;;;;4991490;28;20054;-79
2024/02/18 00:22:03;;;;;;;18.30;3.17;;;;;;;;;;4991372;28;20066;-80
2024/02/18 00:24:30;;;;;;;20.85;3.17;;;;;;;;;;4991168;28;20065;-77
2024/02/18 00:26:56;;;;;;;20.50;2.90;;;;;;;;;;4991338;28;20054;-78
2024/02/18 00:29:25;;;;;;;20.80;2.70;;;;;;;;;;4991312;28;20046;-78
2024/02/18 00:31:52;;;;;;;21.70;3.70;;;;;;;;;;4991686;28;20165;-77
2024/02/18 00:34:21;;;;;;;27.58;3.03;;;;;;;;;;4992692;28;20042;-78
2024/02/18 00:36:50;;;;;;;16.63;2.85;;;;;;;;;;4993601;28;20046;-78
2024/02/18 00:39:18;;;;;;;24.85;2.90;;;;;;;;;;4992968;28;20046;-78
2024/02/18 00:41:45;;;;;;;21.35;3.25;;;;;;;;;;4993370;28;20046;-78
2024/02/18 00:44:12;;;;;;;20.63;2.97;;;;;;;;;;4992877;28;20096;-78
2024/02/18 00:46:38;;;;;;;23.92;4.32;;;;;;;;;;4993335;28;20054;-78
2024/02/18 00:49:19;;;;;;;25.02;3.65;;;;;;;;;;4992873;28;20050;-78
2024/02/18 00:51:46;;;;;;;23.48;2.72;;;;;;;;;;4993223;28;20042;-78
2024/02/18 00:54:13;;;;;;;22.38;3.15;;;;;;;;;;4992645;28;20512;-78
2024/02/18 00:56:40;;;;;;;22.45;3.17;;;;;;;;;;4993301;28;20046;-78
2024/02/18 00:59:06;;;;;;;33.53;3.22;;;;;;;;;;4992716;28;20042;-78
2024/02/18 01:01:33;;;;;;;28.38;3.50;;;;;;;;;;4993154;28;20057;-77
2024/02/18 01:04:01;;;;;;;22.33;2.95;;;;;;;;;;4993187;28;20053;-78
2024/02/18 01:06:28;;;;;;;26.67;3.40;;;;;;;;;;4975383;28;20093;-78
2024/02/18 01:08:55;;;;;;;20.48;2.70;;;;;;;;;;4992984;28;20137;-78
2024/02/18 01:11:22;;;;;;;23.40;3.00;;;;;;;;;;4992698;28;20133;-78
2024/02/18 01:13:48;;;;;;;19.88;2.83;;;;;;;;;;4993227;28;20046;-78
2024/02/18 01:16:15;;;;;;;20.70;3.03;;;;;;;;;;4992503;28;20050;-78
2024/02/18 01:18:43;;;;;;;18.95;2.67;;;;;;;;;;4993194;28;20378;-78
2024/02/18 01:21:10;;;;;;;28.05;2.63;;;;;;;;;;4992452;28;20042;-78
2024/02/18 01:23:37;;;;;;;28.23;3.65;;;;;;;;;;4993010;28;20137;-78
2024/02/18 01:26:05;;;;;;;18.98;3.63;;;;;;;;;;4992449;28;20034;-77
2024/02/18 01:28:31;;;;;;;25.95;3.38;;;;;;;;;;4995065;28;20390;-78
2024/02/18 01:30:58;;;;;;;28.52;4.47;;;;;;;;;;4996633;28;20043;-78
2024/02/18 01:33:25;;;;;;;20.02;2.97;;;;;;;;;;4996326;28;20381;-78
2024/02/18 01:35:52;;;;;;;24.58;3.50;;;;;;;;;;4996650;28;20134;-78
2024/02/18 01:38:18;;;;;;;30.65;4.55;;;;;;;;;;4995809;28;20038;-78
2024/02/18 01:40:45;;;;;;;24.08;3.78;;;;;;;;;;4996442;28;20056;-78
2024/02/18 01:43:13;;;;;;;32.03;4.30;;;;;;;;;;4995872;28;20516;-77
2024/02/18 01:45:40;;;;;;;25.83;3.72;;;;;;;;;;4996635;28;20049;-78
2024/02/18 01:48:07;;;;;;;29.13;4.35;;;;;;;;;;4994799;28;20473;-78
2024/02/18 01:50:34;;;;;;;28.15;4.35;;;;;;;;;;4979282;28;20363;-78
2024/02/18 01:53:02;;;;;;;25.50;3.80;;;;;;;;;;4996322;28;20042;-78
2024/02/18 01:55:31;;;;;;;21.27;3.47;;;;;;;;;;4996137;28;20054;-78
2024/02/18 01:57:59;;;;;;;21.08;4.55;;;;;;;;;;4996231;28;20046;-78
2024/02/18 02:00:27;;;;;;;28.25;4.57;;;;;;;;;;4995734;28;20148;-77
2024/02/18 02:02:54;;;;;;;26.90;3.85;;;;;;;;;;4996022;28;20060;-77
2024/02/18 02:05:21;;;;;;;20.58;3.80;;;;;;;;;;4995619;28;20038;-78
2024/02/18 02:07:51;;;;;;;31.90;4.22;;;;;;;;;;4996067;28;20084;-79
2024/02/18 02:10:20;;;;;;;27.85;4.30;;;;;;;;;;4995265;28;20039;-78
2024/02/18 02:12:47;;;;;;;33.65;4.22;;;;;;;;;;4995933;28;20386;-78
2024/02/18 02:15:14;;;;;;;31.20;3.92;;;;;;;;;;4995511;28;20367;-79
2024/02/18 02:17:40;;;;;;;23.48;3.63;;;;;;;;;;4995903;28;20470;-79
2024/02/18 02:20:09;;;;;;;28.25;4.32;;;;;;;;;;4995438;28;20077;-78
2024/02/18 02:22:37;;;;;;;23.05;3.88;;;;;;;;;;4995700;28;20042;-78
2024/02/18 02:25:06;;;;;;;26.80;4.00;;;;;;;;;;4996009;28;20045;-78
2024/02/18 02:27:36;;;;;;;34.80;4.07;;;;;;;;;;4995982;28;20137;-78
2024/02/18 02:30:04;;;;;;;39.58;4.85;;;;;;;;;;4996185;28;20501;-78
2024/02/18 02:32:37;;;;;;;36.25;4.55;;;;;;;;;;4995824;28;20050;-78
2024/02/18 02:35:05;;;;;;;26.30;4.10;;;;;;;;;;4996440;28;20137;-78
2024/02/18 02:37:33;;;;;;;32.53;5.00;;;;;;;;;;4995756;28;20544;-78
2024/02/18 02:40:00;;;;;;;27.23;4.45;;;;;;;;;;4995585;28;20042;-78
2024/02/18 02:42:27;;;;;;;31.60;4.40;;;;;;;;;;4992942;28;20050;-78
2024/02/18 02:44:54;;;;;;;33.33;4.15;;;;;;;;;;4994179;28;20070;-78
2024/02/18 02:47:20;;;;;;;37.55;4.95;;;;;;;;;;4995311;28;20034;-78
2024/02/18 02:49:47;;;;;;;28.77;5.05;;;;;;;;;;4995241;28;20078;-78
2024/02/18 02:52:14;;;;;;;33.40;5.30;;;;;;;;;;4994757;28;20050;-79
2024/02/18 02:54:41;;;;;;;38.30;5.30;;;;;;;;;;4995268;28;20108;-78
2024/02/18 02:57:08;;;;;;;35.20;5.45;;;;;;;;;;4994659;28;20073;-78
2024/02/18 02:59:34;;;;;;;30.75;4.57;;;;;;;;;;4995109;28;20047;-78
2024/02/18 03:02:01;;;;;;;33.50;5.00;;;;;;;;;;4995073;28;20042;-79
2024/02/18 03:04:28;;;;;;;24.75;3.85;;;;;;;;;;4994380;28;20046;-78
2024/02/18 03:06:55;;;;;;;25.15;4.70;;;;;;;;;;4994935;28;20042;-79
2024/02/18 03:09:22;;;;;;;21.73;4.05;;;;;;;;;;4994179;28;20397;-78
2024/02/18 03:11:49;;;;;;;17.55;4.72;;;;;;;;;;4994733;28;20050;-78
2024/02/18 03:14:16;;;;;;;16.10;3.72;;;;;;;;;;4994038;28;20150;-79
2024/02/18 03:16:43;;;;;;;20.50;3.97;;;;;;;;;;4994920;28;20042;-79
2024/02/18 03:19:11;;;;;;;19.27;3.72;;;;;;;;;;4994261;28;20050;-78
2024/02/18 03:21:38;;;;;;;16.50;3.95;;;;;;;;;;4994468;28;20177;-78
2024/02/18 03:24:05;;;;;;;22.67;4.18;;;;;;;;;;4994050;28;20408;-78
2024/02/18 03:26:32;;;;;;;18.33;4.35;;;;;;;;;;4994466;28;20126;-78
2024/02/18 03:28:59;;;;;;;14.68;3.85;;;;;;;;;;4994347;28;20043;-78
2024/02/18 03:31:26;;;;;;;28.23;4.35;;;;;;;;;;4993792;28;20476;-78
2024/02/18 03:33:52;;;;;;;20.23;4.55;;;;;;;;;;4994324;28;20053;-78
2024/02/18 03:36:19;;;;;;;20.60;4.45;;;;;;;;;;4993796;28;20088;-78
2024/02/18 03:38:46;;;;;;;23.58;4.50;;;;;;;;;;4994366;28;20054;-77
2024/02/18 03:41:13;;;;;;;22.25;4.40;;;;;;;;;;4993953;28;20100;-76
2024/02/18 03:43:39;;;;;;;20.77;4.43;;;;;;;;;;4994180;28;20035;-76
2024/02/18 03:46:07;;;;;;;29.77;4.53;;;;;;;;;;4993628;28;20073;-77
2024/02/18 03:48:33;;;;;;;29.92;5.40;;;;;;;;;;4993923;28;20057;-78
2024/02/18 03:51:00;;;;;;;31.52;5.60;;;;;;;;;;4993370;28;20046;-78
2024/02/18 03:53:27;;;;;;;26.00;5.80;;;;;;;;;;4993530;28;20039;-78
2024/02/18 03:55:54;;;;;;;30.92;6.07;;;;;;;;;;4993953;28;20049;-77
2024/02/18 03:58:20;;;;;;;31.70;6.03;;;;;;;;;;4993457;28;20043;-78
2024/02/18 04:00:47;;;;;;;29.20;5.80;;;;;;;;;;4994067;28;20050;-78
2024/02/18 04:03:14;;;;;;;36.97;5.80;;;;;;;;;;4993304;28;20129;-78
2024/02/18 04:05:41;;;;;;;44.92;6.43;;;;;;;;;;4993836;28;20038;-78
2024/02/18 04:08:08;;;;;;;41.97;5.97;;;;;;;;;;4993291;28;20046;-78
2024/02/18 04:10:35;;;;;;;46.70;6.55;;;;;;;;;;4993656;28;20385;-78
2024/02/18 04:13:02;;;;;;;33.88;5.95;;;;;;;;;;4993610;28;20490;-79
2024/02/18 04:15:29;;;;;;;40.63;7.18;;;;;;;;;;4993458;28;20073;-78
2024/02/18 04:17:55;;;;;;;31.85;6.20;;;;;;;;;;4993734;28;20488;-78
2024/02/18 04:20:23;;;;;;;29.30;6.78;;;;;;;;;;4992837;28;20053;-78
2024/02/18 04:22:50;;;;;;;30.58;6.20;;;;;;;;;;4993333;28;20482;-78
2024/02/18 04:25:17;;;;;;;37.70;6.50;;;;;;;;;;4992976;28;20100;-78
2024/02/18 04:27:44;;;;;;;32.17;6.90;;;;;;;;;;4993360;28;20474;-78
2024/02/18 04:30:11;;;;;;;22.27;5.40;;;;;;;;;;4992913;28;20046;-78
2024/02/18 04:32:38;;;;;;;18.20;4.25;;;;;;;;;;4976382;28;20378;-79
2024/02/18 04:35:04;;;;;;;14.43;4.18;;;;;;;;;;4992199;28;20042;-78
2024/02/18 04:37:31;;;;;;;15.38;3.90;;;;;;;;;;4993188;28;20047;-78
2024/02/18 04:39:58;;;;;;;15.55;4.38;;;;;;;;;;4993355;28;20048;-79
2024/02/18 04:42:25;;;;;;;10.40;3.33;;;;;;;;;;4992746;28;20050;-78
2024/02/18 04:44:52;;;;;;;10.65;3.22;;;;;;;;;;4993282;28;20097;-78
2024/02/18 04:47:18;;;;;;;9.02;2.58;;;;;;;;;;4993297;28;20042;-78
2024/02/18 04:49:45;;;;;;;5.43;2.75;;;;;;;;;;4993837;28;20497;-78
2024/02/18 04:52:12;;;;;;;8.80;2.15;;;;;;;;;;4993792;28;20085;-78
2024/02/18 04:54:39;;;;;;;9.15;2.40;;;;;;;;;;4976232;28;20058;-78
2024/02/18 04:57:06;;;;;;;4.88;1.88;;;;;;;;;;4994236;28;20085;-79
2024/02/18 04:59:34;;;;;;;7.88;1.90;;;;;;;;;;4993209;28;20050;-78
2024/02/18 05:02:02;;;;;;;4.53;1.45;;;;;;;;;;4994677;28;20046;-79
2024/02/18 05:04:31;;;;;;;;;;;;;;;;;;4997274;28;20054;-79
2024/02/18 05:06:59;;;;;;;4.63;1.35;;;;;;;;;;4997172;28;19922;-79
2024/02/18 05:09:26;;;;;;;1.65;1.05;;;;;;;;;;4996374;28;20053;-79
2024/02/18 05:11:54;;;;;;;2.05;0.90;;;;;;;;;;4997137;28;20089;-79
2024/02/18 05:14:21;;;;;;;3.13;1.10;;;;;;;;;;4996392;28;20046;-79
2024/02/18 05:16:48;;;;;;;4.15;0.88;;;;;;;;;;4996837;28;20675;-78
2024/02/18 05:19:16;;;;;;;4.30;1.20;;;;;;;;;;4996496;28;20046;-78
2024/02/18 05:21:43;;;;;;;1.70;1.00;;;;;;;;;;4996797;28;20104;-78
2024/02/18 05:24:11;;;;;;;1.65;0.80;;;;;;;;;;4997221;28;20047;-78
2024/02/18 05:26:38;;;;;;;5.05;1.10;;;;;;;;;;4996931;28;20050;-78
2024/02/18 05:29:06;;;;;;;1.85;0.68;;;;;;;;;;4996263;28;20421;-78
2024/02/18 05:31:33;;;;;;;1.27;0.70;;;;;;;;;;4997531;28;20042;-78
2024/02/18 05:34:00;;;;;;;2.40;0.80;;;;;;;;;;4996566;28;20106;-78
2024/02/18 05:36:27;;;;;;;1.00;0.60;;;;;;;;;;4996122;28;20108;-78
2024/02/18 05:38:54;;;;;;;1.50;0.50;;;;;;;;;;4996701;28;20046;-79
2024/02/18 05:41:21;;;;;;;2.78;0.63;;;;;;;;;;4995943;28;20552;-79
2024/02/18 05:43:48;;;;;;;0.98;0.60;;;;;;;;;;4995112;28;20054;-79
2024/02/18 05:46:14;;;;;;;0.70;0.60;;;;;;;;;;4995758;28;20069;-79
2024/02/18 05:48:41;;;;;;;3.10;0.60;;;;;;;;;;4996336;28;20046;-79
2024/02/18 05:51:08;;;;;;;1.70;0.60;;;;;;;;;;4995948;28;20061;-79
2024/02/18 05:53:36;;;;;;;2.50;0.52;;;;;;;;;;4996183;28;20046;-78
2024/02/18 05:56:03;;;;;;;2.20;0.70;;;;;;;;;;4996236;28;20071;-79
2024/02/18 05:58:30;;;;;;;2.42;0.80;;;;;;;;;;4995776;28;20548;-79
2024/02/18 06:00:56;;;;;;;1.60;0.68;;;;;;;;;;4996174;28;20045;-79
2024/02/18 06:03:23;;;;;;;1.08;0.75;;;;;;;;;;4995534;28;20050;-79
2024/02/18 06:05:51;;;;;;;2.38;0.90;;;;;;;;;;4996164;28;20134;-80
2024/02/18 06:08:18;;;;;;;3.70;1.20;;;;;;;;;;4995388;28;20130;-79
2024/02/18 06:10:45;;;;;;;2.88;1.20;;;;;;;;;;4995845;28;20117;-79
2024/02/18 06:13:12;;;;;;;4.25;1.30;;;;;;;;;;4993518;28;20129;-79
2024/02/18 06:15:39;;;;;;;4.40;1.58;;;;;;;;;;4995929;28;20050;-79
2024/02/18 06:18:07;;;;;;;5.95;1.65;;;;;;;;;;4995341;28;20043;-79
2024/02/18 06:20:34;;;;;;;5.00;2.10;;;;;;;;;;4995941;28;20502;-79
2024/02/18 06:23:00;;;;;;;8.07;2.40;;;;;;;;;;4996037;28;20050;-78
2024/02/18 06:25:29;;;;;;;18.42;3.05;;;;;;;;;;4995913;28;20382;-79
2024/02/18 06:27:56;;;;;;;8.60;2.97;;;;;;;;;;4995873;28;20046;-79
2024/02/18 06:30:22;;;;;;;11.85;3.55;;;;;;;;;;4994997;28;20113;-78
2024/02/18 06:32:49;;;;;;;19.30;3.97;;;;;;;;;;4995611;28;20051;-79
2024/02/18 06:35:16;;;;;;;34.60;4.28;;;;;;;;;;4995165;28;20381;-79
2024/02/18 06:37:43;;;;;;;62.78;4.85;;;;;;;;;;4995577;28;20046;-79
2024/02/18 06:40:10;;;;;;;76.47;5.35;;;;;;;;;;4994875;28;20043;-79
2024/02/18 06:42:37;;;;;;;69.03;5.60;;;;;;;;;;4994247;28;20482;-78
2024/02/18 06:45:04;;;;;;;75.70;5.63;;;;;;;;;;4995415;28;20133;-79
2024/02/18 06:47:31;;;;;;;69.43;6.10;;;;;;;;;;4995111;28;20057;-78
2024/02/18 06:49:58;;;;;;;60.88;5.57;;;;;;;;;;4995249;28;20056;-78
2024/02/18 06:52:25;;;;;;;67.07;5.18;;;;;;;;;;4994691;28;20046;-79
2024/02/18 06:54:51;;;;;;;83.50;6.68;;;;;;;;;;4994896;28;20081;-78
2024/02/18 06:57:18;;;;;;;64.82;5.15;;;;;;;;;;4994517;28;20062;-78
2024/02/18 06:59:45;;;;;;;52.30;5.22;;;;;;;;;;4995995;28;20373;-79
2024/02/18 07:02:12;;;;;;;45.40;5.18;;;;;;;;;;4994296;28;20061;-79
2024/02/18 07:04:39;;;;;;;23.38;4.53;;;;;;;;;;4995039;28;20440;-78
2024/02/18 07:07:06;;;;;;;23.35;4.68;;;;;;;;;;4994395;28;20129;-78
2024/02/18 07:09:32;;;;;;;20.90;4.30;;;;;;;;;;4994561;28;20042;-79
2024/02/18 07:11:59;;;;;;;33.47;5.10;;;;;;;;;;4993761;28;20043;-79
2024/02/18 07:14:26;;;;;;;62.00;5.45;;;;;;;;;;4994317;28;20100;-78
2024/02/18 07:16:53;;;;;;;87.93;6.63;;;;;;;;;;4994694;28;20046;-78
2024/02/18 07:19:20;;;;;;;84.07;6.07;;;;;;;;;;4994050;28;20052;-77
2024/02/18 07:21:46;;;;;;;118.32;6.95;;;;;;;;;;4994617;28;20092;-77
2024/02/18 07:24:13;;;;;;;128.40;6.68;;;;;;;;;;4994439;28;20045;-78
2024/02/18 07:26:40;;;;;;;143.57;7.75;;;;;;;;;;4993757;28;20041;-78
2024/02/18 07:29:07;;;;;;;59.78;4.93;;;;;;;;;;4994293;28;20406;-78
2024/02/18 07:31:36;;;;;;;105.72;5.88;;;;;;;;;;4994709;28;20088;-78
2024/02/18 07:34:04;;;;;;;85.22;6.00;;;;;;;;;;4994242;28;20125;-79
2024/02/18 07:36:33;;;;;;;165.50;8.10;;;;;;;;;;4994398;28;20474;-77
2024/02/18 07:38:59;;;;;;;121.97;5.47;;;;;;;;;;4993595;28;20278;-78
2024/02/18 07:41:26;;;;;;;107.45;5.90;;;;;;;;;;4994793;28;20046;-77
2024/02/18 07:43:53;;;;;;;119.55;5.97;;;;;;;;;;4994124;28;20046;-78
2024/02/18 07:46:20;;;;;;;139.27;6.75;;;;;;;;;;4993601;28;20046;-78
2024/02/18 07:48:47;;;;;;;77.30;5.00;;;;;;;;;;4992195;28;20057;-78
2024/02/18 07:51:14;;;;;;;74.10;4.82;;;;;;;;;;4988545;28;20043;-78
2024/02/18 07:53:41;;;;;;;100.75;5.10;;;;;;;;;;4992363;28;20549;-78
2024/02/18 07:56:07;;;;;;;66.30;4.20;;;;;;;;;;4991271;28;20486;-78
2024/02/18 07:58:34;;;;;;;41.67;3.70;;;;;;;;;;4989344;28;20497;-78
2024/02/18 08:01:01;;;;;;;68.82;5.15;;;;;;;;;;4990984;28;20386;-78
2024/02/18 08:03:28;;;;;;;66.50;4.10;;;;;;;;;;4991977;28;20073;-78
2024/02/18 08:05:54;;;;;;;60.60;4.32;;;;;;;;;;4992305;28;20390;-77
2024/02/18 08:08:22;;;;;;;55.78;4.40;;;;;;;;;;4975048;28;20513;-78
2024/02/18 08:10:49;;;;;;;116.68;5.28;;;;;;;;;;4972740;28;20043;-78
2024/02/18 08:13:16;;;;;;;62.67;4.35;;;;;;;;;;4972199;28;20070;-79
2024/02/18 08:15:43;;;;;;;97.57;5.97;;;;;;;;;;4972398;28;20051;-78
2024/02/18 08:18:10;;;;;;;34.03;3.20;;;;;;;;;;4986172;28;20053;-78
2024/02/18 08:20:38;;;;;;;13.88;2.00;;;;;;;;;;4992127;28;20053;-78
2024/02/18 08:23:07;;;;;;;8.13;1.80;;;;;;;;;;4974872;28;20474;-78
2024/02/18 08:25:35;;;;;;;3.40;1.58;;;;;;;;;;4988542;28;20043;-78
2024/02/18 08:28:02;;;;;;;4.70;1.60;;;;;;;;;;4980022;28;20486;-78
2024/02/18 08:30:29;;;;;;;6.50;1.80;;;;;;;;;;4984302;28;20452;-78
2024/02/18 08:32:56;;;;;;;9.95;1.67;;;;;;;;;;4988838;28;20536;-77
2024/02/18 08:35:23;;;;;;;5.40;1.30;;;;;;;;;;4982046;28;20046;-78
2024/02/18 08:37:50;;;;;;;4.22;1.33;;;;;;;;;;4992956;28;20510;-77
2024/02/18 08:40:17;;;;;;;4.90;1.10;;;;;;;;;;4991320;28;20038;-78
2024/02/18 08:42:44;;;;;;;5.68;1.13;;;;;;;;;;4993699;28;20108;-79
2024/02/18 08:45:11;;;;;;;3.22;0.98;;;;;;;;;;4993088;28;20034;-77
2024/02/18 08:47:38;;;;;;;3.65;0.85;;;;;;;;;;4992581;28;20054;-78
2024/02/18 08:50:05;;;;;;;4.78;1.00;;;;;;;;;;4990680;28;20042;-77
2024/02/18 08:52:32;;;;;;;3.88;0.77;;;;;;;;;;4993383;28;20046;-78
2024/02/18 08:54:59;;;;;;;1.88;0.45;;;;;;;;;;4993344;28;20038;-78
2024/02/18 08:57:26;;;;;;;1.58;0.57;;;;;;;;;;4992729;28;20046;-77
2024/02/18 08:59:52;;;;;;;0.65;0.43;;;;;;;;;;4993366;28;20054;-76
2024/02/18 09:02:19;;;;;;;1.27;0.30;;;;;;;;;;4992746;28;20043;-78
2024/02/18 09:04:46;;;;;;;1.15;0.40;;;;;;;;;;4993184;28;20386;-79
2024/02/18 09:07:13;;;;;;;0.35;0.35;;;;;;;;;;4992781;28;20046;-79
2024/02/18 09:09:40;;;;;;;0.63;0.20;;;;;;;;;;4993005;28;20504;-78
2024/02/18 09:12:07;;;;;;;1.15;0.28;;;;;;;;;;4992624;28;20137;-77
2024/02/18 09:14:34;;;;;;;0.50;0.30;;;;;;;;;;4993199;28;20446;-78
2024/02/18 09:17:02;;;;;;;0.80;0.35;;;;;;;;;;4993261;28;20042;-77
2024/02/18 09:19:28;;;;;;;0.80;0.60;;;;;;;;;;4988011;28;20097;-78
2024/02/18 09:21:55;;;;;;;2.20;1.02;;;;;;;;;;4983529;28;20053;-78
2024/02/18 09:24:22;;;;;;;2.83;0.90;;;;;;;;;;4991947;28;20173;-79
2024/02/18 09:26:49;;;;;;;1.25;0.50;;;;;;;;;;4993154;28;20042;-78
2024/02/18 09:29:15;;;;;;;1.58;0.77;;;;;;;;;;4992525;28;20039;-79
2024/02/18 09:31:42;;;;;;;2.10;0.70;;;;;;;;;;4992112;28;20130;-79
2024/02/18 09:34:09;;;;;;;2.13;1.42;;;;;;;;;;4988121;28;20042;-79
2024/02/18 09:36:36;;;;;;;3.55;0.82;;;;;;;;;;4983348;28;20058;-79
2024/02/18 09:39:03;;;;;;;4.85;1.27;;;;;;;;;;4989248;28;20081;-78
2024/02/18 09:41:30;;;;;;;2.47;1.05;;;;;;;;;;4988370;28;20050;-80
2024/02/18 09:44:07;;;;;;;5.78;1.70;;;;;;;;;;4986748;28;20053;-77
2024/02/18 09:46:38;;;;;;;15.60;1.92;;;;;;;;;;4974117;28;20051;-78
2024/02/18 09:49:07;;;;;;;10.07;1.85;;;;;;;;;;4984199;28;20050;-78
2024/02/18 09:51:35;;;;;;;8.52;1.98;;;;;;;;;;4981208;28;20057;-77
2024/02/18 09:54:06;;;;;;;4.70;1.80;;;;;;;;;;4990382;28;20100;-78
2024/02/18 09:56:34;;;;;;;6.00;2.22;;;;;;;;;;4989478;28;20134;-78
2024/02/18 09:59:00;;;;;;;4.47;2.55;;;;;;;;;;4976879;28;20426;-78
2024/02/18 10:01:27;;;;;;;5.35;2.78;;;;;;;;;;4981212;28;20061;-78
2024/02/18 10:03:54;;;;;;;7.50;3.17;;;;;;;;;;4982332;28;20473;-78
2024/02/18 10:06:21;;;;;;;7.22;3.03;;;;;;;;;;4989229;28;20381;-78
2024/02/18 10:08:51;;;;;;;9.85;3.28;;;;;;;;;;4986846;28;20046;-78
2024/02/18 10:11:22;;;;;;;7.20;3.70;;;;;;;;;;4988847;28;20500;-78
2024/02/18 10:13:51;;;;;;;5.88;2.90;;;;;;;;;;4980132;28;20046;-77
2024/02/18 10:16:18;;;;;;;5.28;2.95;;;;;;;;;;4975838;28;20057;-78
2024/02/18 10:18:45;;;;;;;8.35;3.15;;;;;;;;;;4978525;28;20039;-77
2024/02/18 10:21:14;;;;;;;8.47;3.53;;;;;;;;;;4977215;28;20034;-78
2024/02/18 10:23:46;;;;;;;9.80;4.22;;;;;;;;;;4979903;28;20481;-78
2024/02/18 10:26:12;;;;;;;7.72;3.35;;;;;;;;;;4989610;28;20429;-78
2024/02/18 10:28:39;;;;;;;7.70;3.10;;;;;;;;;;4993521;28;20039;-78
2024/02/18 10:31:09;;;;;;;5.13;2.42;;;;;;;;;;4991260;28;20046;-78
2024/02/18 10:33:38;;;;;;;9.45;2.63;;;;;;;;;;4992010;28;20065;-78
2024/02/18 10:36:11;;;;;;;6.40;3.00;;;;;;;;;;4976966;28;20063;-78
2024/02/18 10:38:44;;;;;;;3.80;2.28;;;;;;;;;;4988785;28;20450;-78
2024/02/18 10:41:19;;;;;;;7.38;2.25;;;;;;;;;;4993337;28;20133;-79
2024/02/18 10:43:49;;;;;;;7.32;2.10;;;;;;;;;;4994982;28;20553;-79
2024/02/18 10:46:23;;;;;;;5.55;1.40;;;;;;;;;;4994944;28;20049;-79
2024/02/18 10:48:52;;;;;;;3.42;1.30;;;;;;;;;;4995094;28;20054;-79
2024/02/18 10:51:25;;;;;;;4.75;1.40;;;;;;;;;;4993693;28;20038;-78
2024/02/18 10:54:26;;;;;;;3.20;1.27;;;;;;;;;;4985051;28;20447;-79
2024/02/18 10:56:59;;;;;;;3.55;1.38;;;;;;;;;;4994464;28;20046;-79
2024/02/18 10:59:49;;;;;;;5.07;1.10;;;;;;;;;;4988190;28;20060;-79
2024/02/18 11:02:25;;;;;;;4.18;1.65;;;;;;;;;;4977258;28;20418;-78
2024/02/18 11:04:53;;;;;;;3.50;1.45;;;;;;;;;;4980204;28;20046;-79
2024/02/18 11:07:21;;;;;;;5.20;1.67;;;;;;;;;;4962199;28;20046;-78
2024/02/18 11:09:48;;;;;;;3.78;2.10;;;;;;;;;;4985988;28;20619;-79
2024/02/18 11:12:16;;;;;;;6.97;1.38;;;;;;;;;;4990274;28;20085;-79
2024/02/18 11:14:44;;;;;;;5.38;1.98;;;;;;;;;;4992077;28;20035;-78
2024/02/18 11:17:11;;;;;;;5.07;2.20;;;;;;;;;;4986608;28;20389;-78
2024/02/18 11:19:38;;;;;;;8.98;5.55;;;;;;;;;;4990160;28;20046;-78
2024/02/18 11:22:05;;;;;;;10.57;4.97;;;;;;;;;;4990700;28;20042;-77
2024/02/18 11:24:32;;;;;;;8.70;3.13;;;;;;;;;;4987600;28;20511;-77
2024/02/18 11:26:59;;;;;;;10.07;3.45;;;;;;;;;;4994684;28;20041;-79
2024/02/18 11:29:26;;;;;;;16.83;6.47;;;;;;;;;;4989994;28;20054;-79
2024/02/18 11:31:53;;;;;;;12.45;3.40;;;;;;;;;;4989694;28;20057;-78
2024/02/18 11:34:20;;;;;;;20.98;8.60;;;;;;;;;;4990218;28;20038;-77
2024/02/18 11:36:47;;;;;;;16.60;6.60;;;;;;;;;;4984188;28;20038;-78
2024/02/18 11:39:14;;;;;;;20.20;3.88;;;;;;;;;;4992494;28;20043;-78
2024/02/18 11:41:41;;;;;;;14.82;3.55;;;;;;;;;;4992572;28;20073;-78
2024/02/18 11:44:10;;;;;;;13.55;3.78;;;;;;;;;;4990413;28;20127;-78
2024/02/18 11:46:42;;;;;;;;;;;;;;;;;;4984979;28;20050;-78
2024/02/18 11:49:09;;;;;;;12.68;3.53;;;;;;;;;;4992231;28;19929;-79
2024/02/18 11:51:37;;;;;;;11.75;3.58;;;;;;;;;;4978189;28;20050;-79
2024/02/18 11:54:05;;;;;;;10.80;2.23;;;;;;;;;;4992333;28;20129;-77
2024/02/18 11:56:32;;;;;;;14.30;2.63;;;;;;;;;;4990414;28;20137;-79
2024/02/18 11:58:59;;;;;;;12.70;2.67;;;;;;;;;;4988178;28;20477;-79
2024/02/18 12:01:26;;;;;;;21.85;3.30;;;;;;;;;;4987798;28;20367;-79
2024/02/18 12:03:56;;;;;;;14.68;2.90;;;;;;;;;;4986714;28;20054;-79
2024/02/18 12:06:23;;;;;;;12.68;2.42;;;;;;;;;;4989132;28;20074;-78
2024/02/18 12:08:50;;;;;;;13.82;3.28;;;;;;;;;;4992411;28;20133;-81
2024/02/18 12:11:17;;;;;;;15.82;2.40;;;;;;;;;;4974834;28;20041;-80
2024/02/18 12:13:44;;;;;;;13.80;1.88;;;;;;;;;;4973278;28;20359;-80
2024/02/18 12:16:11;;;;;;;11.55;1.83;;;;;;;;;;4988519;28;20038;-80
2024/02/18 12:18:38;;;;;;;15.02;1.40;;;;;;;;;;4989038;28;20137;-81
2024/02/18 12:21:07;;;;;;;13.95;1.90;;;;;;;;;;4991779;28;20105;-85
2024/02/18 12:23:40;;;;;;;15.43;1.90;;;;;;;;;;4972684;28;20042;-87
2024/02/18 12:26:06;;;;;;;8.43;1.40;;;;;;;;;;4955706;28;20055;-77
2024/02/18 12:28:33;;;;;;;11.40;1.77;;;;;;;;;;4987860;28;20049;-79
2024/02/18 12:31:01;;;;;;;16.17;2.03;;;;;;;;;;4989675;28;20039;-77
2024/02/18 12:33:28;;;;;;;16.02;2.30;;;;;;;;;;4991520;28;20042;-78
2024/02/18 12:35:55;;;;;;;16.90;2.22;;;;;;;;;;4981414;28;20047;-83
2024/02/18 12:38:22;;;;;;;19.85;2.78;;;;;;;;;;4968143;28;20106;-79
2024/02/18 12:40:55;;;;;;;18.65;2.60;;;;;;;;;;4988962;28;20054;-79
2024/02/18 12:43:24;;;;;;;23.40;2.90;;;;;;;;;;4972220;28;20429;-81
2024/02/18 12:46:11;;;;;;;17.15;3.08;;;;;;;;;;4989635;28;20058;-79
2024/02/18 12:48:38;;;;;;;23.13;3.28;;;;;;;;;;4990478;28;20097;-78
2024/02/18 12:51:09;;;;;;;27.42;3.78;;;;;;;;;;4981496;28;20046;-77
2024/02/18 12:53:38;;;;;;;28.25;3.50;;;;;;;;;;4973026;28;20053;-79
2024/02/18 12:56:07;;;;;;;30.48;3.42;;;;;;;;;;4973625;28;20047;-79
2024/02/18 12:58:35;;;;;;;;;;;;;;;;;;4974371;28;20478;-79
2024/02/18 13:01:05;;;;;;;24.33;3.70;;;;;;;;;;4974907;28;19926;-80
2024/02/18 13:03:35;;;;;;;18.33;3.15;;;;;;;;;;4973809;28;20047;-79
2024/02/18 13:06:03;;;;;;;19.27;3.40;;;;;;;;;;4973720;28;20126;-79
2024/02/18 13:08:32;;;;;;;19.60;3.00;;;;;;;;;;4973458;28;20386;-83
2024/02/18 13:10:59;;;;;;;22.15;4.38;;;;;;;;;;4977956;28;20068;-79
2024/02/18 13:13:27;;;;;;;29.00;3.83;;;;;;;;;;4986231;28;20385;-79
2024/02/18 13:15:54;;;;;;;27.98;3.63;;;;;;;;;;4992577;28;20423;-79
2024/02/18 13:18:21;;;;;;;25.10;3.88;;;;;;;;;;4986562;28;20130;-79
2024/02/18 13:20:48;;;;;;;27.63;4.05;;;;;;;;;;4988508;28;20133;-80
2024/02/18 13:23:15;;;;;;;22.05;3.63;;;;;;;;;;4985936;28;20041;-79
2024/02/18 13:25:41;;;;;;;18.42;3.30;;;;;;;;;;4982854;28;20425;-79
2024/02/18 13:28:10;;;;;;;22.35;4.32;;;;;;;;;;4996139;28;20040;-79
2024/02/18 13:30:37;;;;;;;32.00;4.60;;;;;;;;;;4996123;28;20053;-79
2024/02/18 13:33:04;;;;;;;24.02;3.80;;;;;;;;;;4995608;28;20050;-79
2024/02/18 13:35:31;;;;;;;34.58;4.28;;;;;;;;;;4978557;28;20061;-79
2024/02/18 13:37:57;;;;;;;28.95;4.10;;;;;;;;;;4991040;28;20047;-79
2024/02/18 13:40:24;;;;;;;23.58;5.07;;;;;;;;;;4992390;28;20113;-79
2024/02/18 13:42:51;;;;;;;34.60;4.25;;;;;;;;;;4996065;28;20054;-79
2024/02/18 13:45:18;;;;;;;35.05;4.05;;;;;;;;;;4995723;28;20355;-79
2024/02/18 13:47:52;;;;;;;28.13;3.90;;;;;;;;;;4996180;28;20494;-79
2024/02/18 13:50:23;;;;;;;41.05;5.78;;;;;;;;;;4978891;28;20058;-79
2024/02/18 13:52:50;;;;;;;27.40;4.50;;;;;;;;;;4994977;28;20432;-79
2024/02/18 13:55:17;;;;;;;39.90;5.25;;;;;;;;;;4990029;28;20429;-80
2024/02/18 13:57:43;;;;;;;32.03;5.40;;;;;;;;;;4992854;28;20450;-79
2024/02/18 14:00:11;;;;;;;33.08;4.70;;;;;;;;;;4993962;28;20046;-79
2024/02/18 14:02:38;;;;;;;28.95;4.45;;;;;;;;;;4990955;28;20053;-78
2024/02/18 14:05:05;;;;;;;29.50;5.35;;;;;;;;;;4992295;28;20046;-78
2024/02/18 14:07:32;;;;;;;31.08;4.75;;;;;;;;;;4975568;28;20089;-78
2024/02/18 14:09:59;;;;;;;34.30;5.10;;;;;;;;;;4990954;28;20042;-79
2024/02/18 14:12:26;;;;;;;30.90;4.03;;;;;;;;;;4986573;28;20046;-79
2024/02/18 14:14:52;;;;;;;31.85;4.35;;;;;;;;;;4991746;28;20089;-79
2024/02/18 14:17:19;;;;;;;32.58;5.28;;;;;;;;;;4990599;28;20049;-79
2024/02/18 14:19:46;;;;;;;31.50;4.40;;;;;;;;;;4994080;28;20053;-79
2024/02/18 14:22:13;;;;;;;28.58;5.22;;;;;;;;;;4991891;28;20042;-79
2024/02/18 14:24:40;;;;;;;24.95;4.53;;;;;;;;;;4992688;28;20078;-79
2024/02/18 14:27:07;;;;;;;31.30;4.07;;;;;;;;;;4989394;28;20434;-79
2024/02/18 14:29:34;;;;;;;27.08;3.67;;;;;;;;;;4987473;28;20038;-80
2024/02/18 14:32:01;;;;;;;29.00;4.38;;;;;;;;;;4992109;28;20129;-79
2024/02/18 14:34:28;;;;;;;23.90;4.28;;;;;;;;;;4987290;28;20048;-79